createdAt,value
2019-05-29T00:01:48.157Z,75.41
2019-05-29T00:04:22.277Z,75.46
2019-05-29T00:06:56.331Z,75.41
2019-05-29T00:09:29.686Z,75.50
2019-05-29T00:12:03.929Z,75.42
2019-05-29T00:14:38.205Z,75.42
2019-05-29T00:17:12.527Z,75.45
2019-05-29T00:19:46.530Z,75.41
2019-05-29T00:22:20.419Z,75.42
2019-05-29T00:24:54.639Z,75.41
2019-05-29T00:27:28.544Z,75.37
2019-05-29T00:30:02.369Z,75.41
2019-05-29T00:32:36.779Z,75.40
2019-05-29T00:35:12.174Z,75.38
2019-05-29T00:37:46.171Z,75.43
2019-05-29T00:40:20.216Z,75.41
2019-05-29T00:42:53.287Z,75.45
2019-05-29T00:45:27.069Z,75.41
2019-05-29T00:48:01.071Z,75.40
2019-05-29T00:50:35.044Z,75.38
2019-05-29T00:53:10.090Z,75.37
2019-05-29T00:55:43.997Z,75.36
2019-05-29T00:58:19.725Z,75.45
2019-05-29T01:00:53.628Z,75.35
2019-05-29T01:03:27.464Z,75.25
2019-05-29T01:06:01.387Z,75.23
2019-05-29T01:08:35.172Z,75.19
2019-05-29T01:11:09.111Z,75.13
2019-05-29T01:13:43.059Z,75.10
2019-05-29T01:16:16.220Z,75.07
2019-05-29T01:18:51.163Z,75.00
2019-05-29T01:21:24.957Z,74.99
2019-05-29T01:23:58.823Z,74.94
2019-05-29T01:26:32.727Z,74.93
2019-05-29T01:29:06.535Z,74.89
2019-05-29T01:31:40.453Z,74.91
2019-05-29T01:34:14.291Z,74.87
2019-05-29T01:36:48.371Z,74.86
2019-05-29T01:39:23.525Z,74.82
2019-05-29T01:41:57.539Z,74.80
2019-05-29T01:44:31.591Z,74.76
2019-05-29T01:47:04.719Z,74.78
2019-05-29T01:49:38.450Z,74.75
2019-05-29T01:52:12.369Z,74.75
2019-05-29T01:54:46.281Z,74.73
2019-05-29T01:57:20.160Z,74.70
2019-05-29T01:59:53.973Z,74.71
2019-05-29T02:02:28.260Z,74.66
2019-05-29T02:05:02.315Z,74.65
2019-05-29T02:07:36.278Z,74.61
2019-05-29T02:10:09.430Z,74.59
2019-05-29T02:12:43.332Z,74.59
2019-05-29T02:15:26.814Z,74.59
2019-05-29T02:17:52.995Z,74.54
2019-05-29T02:20:27.207Z,74.52
2019-05-29T02:23:01.151Z,74.51
2019-05-29T02:25:35.001Z,74.47
2019-05-29T02:28:08.877Z,74.46
2019-05-29T02:30:42.789Z,74.42
2019-05-29T02:33:17.588Z,74.36
2019-05-29T02:35:51.653Z,74.36
2019-05-29T02:38:25.450Z,74.35
2019-05-29T02:41:00.437Z,74.33
2019-05-29T02:43:34.269Z,74.34
2019-05-29T02:46:08.238Z,74.27
2019-05-29T02:48:42.067Z,74.27
2019-05-29T02:51:15.864Z,74.26
2019-05-29T02:53:49.684Z,74.24
2019-05-29T02:56:24.898Z,74.16
2019-05-29T02:58:58.855Z,74.16
2019-05-29T03:01:33.083Z,74.13
2019-05-29T03:04:07.138Z,74.06
2019-05-29T03:06:42.648Z,74.07
2019-05-29T03:09:17.895Z,73.97
2019-05-29T03:11:52.061Z,74.02
2019-05-29T03:14:27.257Z,73.99
2019-05-29T03:17:01.283Z,73.90
2019-05-29T03:19:35.198Z,73.88
2019-05-29T03:22:08.425Z,73.84
2019-05-29T03:24:42.261Z,73.75
2019-05-29T03:27:16.178Z,73.73
2019-05-29T03:29:50.043Z,73.71
2019-05-29T03:32:23.946Z,73.65
2019-05-29T03:34:57.848Z,73.63
2019-05-29T03:37:32.470Z,73.54
2019-05-29T03:40:07.613Z,73.54
2019-05-29T03:42:41.716Z,73.48
2019-05-29T03:45:14.732Z,73.37
2019-05-29T03:47:49.452Z,73.32
2019-05-29T03:50:22.567Z,73.35
2019-05-29T03:52:56.540Z,73.36
2019-05-29T03:55:31.386Z,73.27
2019-05-29T03:58:04.443Z,73.23
2019-05-29T04:00:45.587Z,73.25
2019-05-29T04:03:13.948Z,73.20
2019-05-29T04:05:47.051Z,73.08
2019-05-29T04:08:20.865Z,72.99
2019-05-29T04:10:54.696Z,73.07
2019-05-29T04:13:29.624Z,73.02
2019-05-29T04:16:04.189Z,73.03
2019-05-29T04:18:38.090Z,72.95
2019-05-29T04:21:14.329Z,72.80
2019-05-29T04:23:49.855Z,72.81
2019-05-29T04:26:25.335Z,72.56
2019-05-29T04:28:59.379Z,72.52
2019-05-29T04:31:32.921Z,73.05
2019-05-29T04:34:07.901Z,73.06
2019-05-29T04:36:41.658Z,72.93
2019-05-29T04:39:15.509Z,72.63
2019-05-29T04:41:49.457Z,72.33
2019-05-29T04:44:23.333Z,71.82
2019-05-29T04:47:10.122Z,71.40
2019-05-29T04:49:33.828Z,71.04
2019-05-29T04:52:08.355Z,70.72
2019-05-29T04:54:42.267Z,70.20
2019-05-29T04:57:16.214Z,69.72
2019-05-29T04:59:50.122Z,69.83
2019-05-29T05:02:24.165Z,69.17
2019-05-29T05:04:58.260Z,68.57
2019-05-29T05:07:33.206Z,68.38
2019-05-29T05:10:07.900Z,68.56
2019-05-29T05:12:42.167Z,68.34
2019-05-29T05:15:16.362Z,68.27
2019-05-29T05:17:50.217Z,68.57
2019-05-29T05:20:24.112Z,68.55
2019-05-29T05:22:57.201Z,68.56
2019-05-29T05:25:32.148Z,68.79
2019-05-29T05:28:07.023Z,68.46
2019-05-29T05:30:41.004Z,68.67
2019-05-29T05:33:14.113Z,68.61
2019-05-29T05:35:48.159Z,68.24
2019-05-29T05:38:22.063Z,68.50
2019-05-29T05:40:55.319Z,67.99
2019-05-29T05:43:29.118Z,67.28
2019-05-29T05:46:03.127Z,67.61
2019-05-29T05:48:37.145Z,67.27
2019-05-29T05:51:11.160Z,66.95
2019-05-29T05:53:44.226Z,67.18
2019-05-29T05:56:18.027Z,66.20
2019-05-29T05:58:52.018Z,66.25
2019-05-29T06:01:25.896Z,65.43
2019-05-29T06:03:58.993Z,65.26
2019-05-29T06:06:33.915Z,64.39
2019-05-29T06:09:08.747Z,64.16
2019-05-29T06:11:42.803Z,64.53
2019-05-29T06:14:16.630Z,65.06
2019-05-29T06:16:49.718Z,63.52
2019-05-29T06:19:23.960Z,63.12
2019-05-29T06:21:57.793Z,62.29
2019-05-29T06:24:30.885Z,63.07
2019-05-29T06:27:04.745Z,62.48
2019-05-29T06:29:39.353Z,62.78
2019-05-29T06:32:13.461Z,62.24
2019-05-29T06:34:46.838Z,61.96
2019-05-29T06:37:20.680Z,61.26
2019-05-29T06:39:53.776Z,61.43
2019-05-29T06:42:27.608Z,59.16
2019-05-29T06:45:01.096Z,61.09
2019-05-29T06:47:36.478Z,59.98
2019-05-29T06:50:10.712Z,59.80
2019-05-29T06:52:44.722Z,59.89
2019-05-29T06:55:18.728Z,59.64
2019-05-29T06:57:52.582Z,59.61
2019-05-29T07:00:35.032Z,59.71
2019-05-29T07:03:01.131Z,58.91
2019-05-29T07:05:35.557Z,58.39
2019-05-29T07:08:19.036Z,58.45
2019-05-29T07:10:45.075Z,58.70
2019-05-29T07:13:18.130Z,58.28
2019-05-29T07:15:51.972Z,56.68
2019-05-29T07:18:25.765Z,57.05
2019-05-29T07:20:58.868Z,56.23
2019-05-29T07:23:32.804Z,56.50
2019-05-29T07:26:06.847Z,57.03
2019-05-29T07:28:58.937Z,55.68
2019-05-29T07:31:16.262Z,55.66
2019-05-29T07:33:49.566Z,54.76
2019-05-29T07:36:23.447Z,55.55
2019-05-29T07:39:03.367Z,55.69
2019-05-29T07:41:32.855Z,55.44
2019-05-29T07:44:06.851Z,54.72
2019-05-29T07:46:42.156Z,54.29
2019-05-29T07:49:16.265Z,54.36
2019-05-29T07:51:50.122Z,53.59
2019-05-29T07:54:24.043Z,53.34
2019-05-29T07:56:57.915Z,52.60
2019-05-29T07:59:31.901Z,53.76
2019-05-29T08:02:05.837Z,52.74
2019-05-29T08:04:40.895Z,52.28
2019-05-29T08:07:14.945Z,51.43
2019-05-29T08:09:49.807Z,51.68
2019-05-29T08:12:24.008Z,51.67
2019-05-29T08:14:57.939Z,51.38
2019-05-29T08:17:32.018Z,51.24
2019-05-29T08:20:09.424Z,51.25
2019-05-29T08:22:44.433Z,50.21
2019-05-29T08:25:19.123Z,50.66
2019-05-29T08:27:53.064Z,49.58
2019-05-29T08:30:27.102Z,49.83
2019-05-29T08:33:01.099Z,49.08
2019-05-29T08:35:35.121Z,47.81
2019-05-29T08:38:08.943Z,48.39
2019-05-29T08:40:43.027Z,49.59
2019-05-29T08:43:16.987Z,48.03
2019-05-29T08:45:52.679Z,47.98
2019-05-29T08:48:26.659Z,48.16
2019-05-29T08:51:00.664Z,47.01
2019-05-29T08:53:34.686Z,46.80
2019-05-29T08:56:08.587Z,46.51
2019-05-29T08:58:42.916Z,46.40
2019-05-29T09:01:16.912Z,44.98
2019-05-29T09:03:51.342Z,45.38
2019-05-29T09:06:25.489Z,46.03
2019-05-29T09:08:59.310Z,44.79
2019-05-29T09:11:33.156Z,45.42
2019-05-29T09:14:06.974Z,44.73
2019-05-29T09:16:40.831Z,45.02
2019-05-29T09:19:14.678Z,44.92
2019-05-29T09:21:48.486Z,43.24
2019-05-29T09:24:23.071Z,43.76
2019-05-29T09:26:57.043Z,42.06
2019-05-29T09:29:30.813Z,43.75
2019-05-29T09:32:04.929Z,41.12
2019-05-29T09:34:38.762Z,41.95
2019-05-29T09:37:12.714Z,42.53
2019-05-29T09:39:46.632Z,41.12
2019-05-29T09:42:21.935Z,40.89
2019-05-29T09:44:56.240Z,40.80
2019-05-29T09:47:30.103Z,39.67
2019-05-29T09:50:06.055Z,40.17
2019-05-29T09:52:40.001Z,40.32
2019-05-29T09:55:14.156Z,39.44
2019-05-29T09:57:48.325Z,38.37
2019-05-29T10:00:22.592Z,39.15
2019-05-29T10:02:57.226Z,38.27
2019-05-29T10:05:31.269Z,37.02
2019-05-29T10:08:05.317Z,38.12
2019-05-29T10:10:39.130Z,37.54
2019-05-29T10:13:13.125Z,37.14
2019-05-29T10:15:47.056Z,34.58
2019-05-29T10:18:31.878Z,35.04
2019-05-29T10:20:58.100Z,36.51
2019-05-29T10:23:32.910Z,35.74
2019-05-29T10:26:06.996Z,36.22
2019-05-29T10:28:56.065Z,35.82
2019-05-29T10:31:16.637Z,35.09
2019-05-29T10:33:50.496Z,35.21
2019-05-29T10:36:24.464Z,35.44
2019-05-29T10:38:58.411Z,34.60
2019-05-29T10:41:31.513Z,34.22
2019-05-29T10:44:05.721Z,35.76
2019-05-29T10:46:39.507Z,35.92
2019-05-29T10:49:13.538Z,35.14
2019-05-29T10:52:00.377Z,35.22
2019-05-29T10:54:21.441Z,35.41
2019-05-29T10:56:55.458Z,35.43
2019-05-29T10:59:28.691Z,35.50
2019-05-29T11:02:03.010Z,35.69
2019-05-29T11:04:37.140Z,36.19
2019-05-29T11:07:11.182Z,36.23
2019-05-29T11:09:45.153Z,35.95
2019-05-29T11:12:19.025Z,36.08
2019-05-29T11:14:53.119Z,36.44
2019-05-29T11:17:26.528Z,36.82
2019-05-29T11:20:02.256Z,36.83
2019-05-29T11:22:36.345Z,36.82
2019-05-29T11:25:23.396Z,36.98
2019-05-29T11:27:46.532Z,36.47
2019-05-29T11:30:20.898Z,36.39
2019-05-29T11:32:56.592Z,35.70
2019-05-29T11:35:30.542Z,35.70
2019-05-29T11:38:04.987Z,36.14
2019-05-29T11:40:39.384Z,36.39
2019-05-29T11:43:13.878Z,36.13
2019-05-29T11:45:47.964Z,36.53
2019-05-29T11:48:21.670Z,36.72
2019-05-29T11:50:56.179Z,36.62
2019-05-29T11:53:30.690Z,36.77
2019-05-29T11:56:05.170Z,36.39
2019-05-29T11:58:39.341Z,36.68
2019-05-29T12:01:13.691Z,36.70
2019-05-29T12:04:15.709Z,37.04
2019-05-29T12:06:23.242Z,37.23
2019-05-29T12:08:57.926Z,37.75
2019-05-29T12:11:32.083Z,37.32
2019-05-29T12:14:06.707Z,37.35
2019-05-29T12:16:40.563Z,37.33
2019-05-29T12:19:14.549Z,37.53
2019-05-29T12:21:49.157Z,37.92
2019-05-29T12:24:23.020Z,37.70
2019-05-29T12:26:57.006Z,37.89
2019-05-29T12:29:30.962Z,37.77
2019-05-29T12:32:09.807Z,38.04
2019-05-29T12:34:52.775Z,38.62
2019-05-29T12:37:16.250Z,38.91
2019-05-29T12:39:50.296Z,38.75
2019-05-29T12:42:23.373Z,38.97
2019-05-29T12:44:57.639Z,38.85
2019-05-29T12:47:31.839Z,38.88
2019-05-29T12:50:06.411Z,39.12
2019-05-29T12:52:40.697Z,39.42
2019-05-29T12:55:16.132Z,39.36
2019-05-29T12:57:50.131Z,39.19
2019-05-29T13:00:24.961Z,39.31
2019-05-29T13:03:00.611Z,39.46
2019-05-29T13:05:34.725Z,39.37
2019-05-29T13:08:08.791Z,39.50
2019-05-29T13:10:41.925Z,39.55
2019-05-29T13:13:17.149Z,39.90
2019-05-29T13:15:51.565Z,39.69
2019-05-29T13:18:25.680Z,39.56
2019-05-29T13:21:15.229Z,39.81
2019-05-29T13:23:49.061Z,39.83
2019-05-29T13:26:23.239Z,39.66
2019-05-29T13:28:57.532Z,39.72
2019-05-29T13:31:31.764Z,39.51
2019-05-29T13:34:11.008Z,39.63
2019-05-29T13:36:45.059Z,39.59
2019-05-29T13:39:18.319Z,39.90
2019-05-29T13:41:52.260Z,40.15
2019-05-29T13:44:26.320Z,39.99
2019-05-29T13:46:59.930Z,39.82
2019-05-29T13:49:33.996Z,39.69
2019-05-29T13:52:12.351Z,39.97
2019-05-29T13:54:44.979Z,40.24
2019-05-29T13:57:18.819Z,40.39
2019-05-29T13:59:53.011Z,40.00
2019-05-29T14:02:26.970Z,40.06
2019-05-29T14:05:02.636Z,40.21
2019-05-29T14:07:36.884Z,40.26
2019-05-29T14:10:12.568Z,40.35
2019-05-29T14:12:46.590Z,40.20
2019-05-29T14:15:20.801Z,40.08
2019-05-29T14:17:54.939Z,40.10
2019-05-29T14:20:28.351Z,40.00
2019-05-29T14:23:03.355Z,40.22
2019-05-29T14:25:37.585Z,39.92
2019-05-29T14:28:10.835Z,40.25
2019-05-29T14:30:48.868Z,40.26
2019-05-29T14:33:21.720Z,40.52
2019-05-29T14:35:55.566Z,40.02
2019-05-29T14:38:29.745Z,40.20
2019-05-29T14:41:03.788Z,40.19
2019-05-29T14:43:37.918Z,40.02
2019-05-29T14:46:12.209Z,40.17
2019-05-29T14:48:47.649Z,39.53
2019-05-29T14:51:21.822Z,39.54
2019-05-29T14:53:56.059Z,39.27
2019-05-29T14:56:30.158Z,39.21
2019-05-29T14:59:05.393Z,39.40
2019-05-29T15:01:38.097Z,38.75
2019-05-29T15:04:14.163Z,38.63
2019-05-29T15:06:47.786Z,39.05
2019-05-29T15:09:21.754Z,39.35
2019-05-29T15:11:58.760Z,38.95
2019-05-29T15:14:32.785Z,39.24
2019-05-29T15:17:10.964Z,39.09
2019-05-29T15:19:45.350Z,38.63
2019-05-29T15:22:19.196Z,39.18
2019-05-29T15:25:04.395Z,39.03
2019-05-29T15:27:28.824Z,39.55
2019-05-29T15:30:02.866Z,39.74
2019-05-29T15:32:36.383Z,39.98
2019-05-29T15:35:14.370Z,40.02
2019-05-29T15:37:46.446Z,40.26
2019-05-29T15:40:20.613Z,40.05
2019-05-29T15:42:54.693Z,40.00
2019-05-29T15:45:28.107Z,40.21
2019-05-29T15:48:02.380Z,40.33
2019-05-29T15:50:36.730Z,40.31
2019-05-29T15:53:11.011Z,40.54
2019-05-29T15:55:45.173Z,40.28
2019-05-29T15:58:18.469Z,40.19
2019-05-29T16:00:52.362Z,40.25
2019-05-29T16:03:27.681Z,40.20
2019-05-29T16:06:02.226Z,39.98
2019-05-29T16:08:37.028Z,40.16
2019-05-29T16:11:12.597Z,40.23
2019-05-29T16:13:46.906Z,40.48
2019-05-29T16:16:20.749Z,40.25
2019-05-29T16:18:54.654Z,40.50
2019-05-29T16:21:28.418Z,40.44
2019-05-29T16:24:02.184Z,40.52
2019-05-29T16:26:36.036Z,40.79
2019-05-29T16:29:12.303Z,40.22
2019-05-29T16:31:46.497Z,40.36
2019-05-29T16:34:21.496Z,40.63
2019-05-29T16:36:55.888Z,40.53
2019-05-29T16:39:29.909Z,40.61
2019-05-29T16:42:03.122Z,40.54
2019-05-29T16:44:36.908Z,40.76
2019-05-29T16:47:12.168Z,40.78
2019-05-29T16:49:46.296Z,40.47
2019-05-29T16:52:20.786Z,40.37
2019-05-29T16:54:54.667Z,40.34
2019-05-29T16:57:28.607Z,40.40
2019-05-29T17:00:02.543Z,40.62
2019-05-29T17:02:39.127Z,40.86
2019-05-29T17:05:13.736Z,40.99
2019-05-29T17:07:47.695Z,41.18
2019-05-29T17:10:24.674Z,41.22
2019-05-29T17:12:58.522Z,41.17
2019-05-29T17:15:32.561Z,41.06
2019-05-29T17:18:06.785Z,41.01
2019-05-29T17:20:45.640Z,40.92
2019-05-29T17:23:20.811Z,41.01
2019-05-29T17:26:09.600Z,41.09
2019-05-29T17:28:31.686Z,41.34
2019-05-29T17:31:05.507Z,41.54
2019-05-29T17:33:39.341Z,41.80
2019-05-29T17:36:13.131Z,41.62
2019-05-29T17:38:46.991Z,41.46
2019-05-29T17:41:21.166Z,41.39
2019-05-29T17:43:54.266Z,41.45
2019-05-29T17:46:28.250Z,41.65
2019-05-29T17:49:01.406Z,41.85
2019-05-29T17:51:35.486Z,41.91
2019-05-29T17:54:08.664Z,41.93
2019-05-29T17:56:42.479Z,41.99
2019-05-29T17:59:16.290Z,41.91
2019-05-29T18:01:50.218Z,41.93
2019-05-29T18:04:24.930Z,42.00
2019-05-29T18:06:58.982Z,42.05
2019-05-29T18:09:33.096Z,42.10
2019-05-29T18:12:07.760Z,42.15
2019-05-29T18:14:41.365Z,42.25
2019-05-29T18:17:15.712Z,42.48
2019-05-29T18:19:50.033Z,42.57
2019-05-29T18:22:25.743Z,42.58
2019-05-29T18:25:00.129Z,42.67
2019-05-29T18:27:34.249Z,42.75
2019-05-29T18:30:13.170Z,42.84
2019-05-29T18:32:46.980Z,43.04
2019-05-29T18:35:22.901Z,43.07
2019-05-29T18:37:57.484Z,43.17
2019-05-29T18:40:32.553Z,43.31
2019-05-29T18:43:06.862Z,43.33
2019-05-29T18:45:39.968Z,43.47
2019-05-29T18:48:13.963Z,43.59
2019-05-29T18:50:47.904Z,43.72
2019-05-29T18:53:22.742Z,43.69
2019-05-29T18:55:57.061Z,43.78
2019-05-29T18:58:30.655Z,43.92
2019-05-29T19:01:05.184Z,44.13
2019-05-29T19:03:40.501Z,44.25
2019-05-29T19:06:14.616Z,44.29
2019-05-29T19:08:49.082Z,44.47
2019-05-29T19:11:23.815Z,44.55
2019-05-29T19:13:58.034Z,44.76
2019-05-29T19:16:32.257Z,44.91
2019-05-29T19:19:06.831Z,44.91
2019-05-29T19:21:40.738Z,45.15
2019-05-29T19:24:14.974Z,45.20
2019-05-29T19:26:48.883Z,45.29
2019-05-29T19:29:23.033Z,45.45
2019-05-29T19:31:57.126Z,45.59
2019-05-29T19:34:31.513Z,45.59
2019-05-29T19:37:05.687Z,45.83
2019-05-29T19:39:39.565Z,45.99
2019-05-29T19:42:13.507Z,46.13
2019-05-29T19:44:47.498Z,46.19
2019-05-29T19:47:20.539Z,46.35
2019-05-29T19:49:54.439Z,46.54
2019-05-29T19:52:33.285Z,46.49
2019-05-29T19:55:07.976Z,46.53
2019-05-29T19:57:55.126Z,46.72
2019-05-29T20:00:17.867Z,46.96
2019-05-29T20:02:52.327Z,47.02
2019-05-29T20:05:26.783Z,47.27
2019-05-29T20:08:01.374Z,47.37
2019-05-29T20:10:35.996Z,47.46
2019-05-29T20:13:09.980Z,47.67
2019-05-29T20:15:43.447Z,47.76
2019-05-29T20:18:17.399Z,47.87
2019-05-29T20:20:50.738Z,47.92
2019-05-29T20:23:24.582Z,48.32
2019-05-29T20:25:58.844Z,48.15
2019-05-29T20:28:32.631Z,48.30
2019-05-29T20:31:06.585Z,48.62
2019-05-29T20:36:12.952Z,48.84
2019-05-29T20:38:47.022Z,48.92
2019-05-29T20:41:20.179Z,48.98
2019-05-29T20:43:54.180Z,49.21
2019-05-29T20:46:27.596Z,49.29
2019-05-29T20:49:01.845Z,49.35
2019-05-29T20:51:38.266Z,49.47
2019-05-29T20:54:12.276Z,49.37
2019-05-29T20:56:46.346Z,49.42
2019-05-29T20:59:19.426Z,49.57
2019-05-29T21:01:54.066Z,50.17
2019-05-29T21:04:28.068Z,49.93
2019-05-29T21:07:01.351Z,50.05
2019-05-29T21:09:35.409Z,50.61
2019-05-29T21:12:08.630Z,50.49
2019-05-29T21:14:43.427Z,50.65
2019-05-29T21:17:18.334Z,50.88
2019-05-29T21:19:52.493Z,50.81
2019-05-29T21:22:26.347Z,50.87
2019-05-29T21:25:06.243Z,51.04
2019-05-29T21:27:37.110Z,50.94
2019-05-29T21:30:12.179Z,51.16
2019-05-29T21:32:46.524Z,51.25
2019-05-29T21:35:20.626Z,51.38
2019-05-29T21:37:54.738Z,51.36
2019-05-29T21:40:28.698Z,51.73
2019-05-29T21:43:01.955Z,51.73
2019-05-29T21:45:36.781Z,51.75
2019-05-29T21:48:10.826Z,51.81
2019-05-29T21:50:45.431Z,52.15
2019-05-29T21:53:19.555Z,52.11
2019-05-29T21:55:52.778Z,52.22
2019-05-29T21:58:28.406Z,52.69
2019-05-29T22:01:02.826Z,52.43
2019-05-29T22:03:38.317Z,52.68
2019-05-29T22:06:12.632Z,52.85
2019-05-29T22:08:46.458Z,52.78
2019-05-29T22:11:20.403Z,52.61
2019-05-29T22:13:54.407Z,52.81
2019-05-29T22:16:28.524Z,52.97
2019-05-29T22:19:04.135Z,53.44
2019-05-29T22:21:36.376Z,53.23
2019-05-29T22:24:13.135Z,53.84
2019-05-29T22:26:46.996Z,53.34
2019-05-29T22:29:20.897Z,53.35
2019-05-29T22:31:55.293Z,53.45
2019-05-29T22:34:29.365Z,53.74
2019-05-29T22:37:03.226Z,53.68
2019-05-29T22:39:37.314Z,53.70
2019-05-29T22:42:11.275Z,53.67
2019-05-29T22:44:45.766Z,53.86
2019-05-29T22:47:19.619Z,54.03
2019-05-29T22:49:53.986Z,54.08
2019-05-29T22:52:27.984Z,54.39
2019-05-29T22:55:02.381Z,54.26
2019-05-29T22:57:36.371Z,54.50
2019-05-29T23:00:11.910Z,54.82
2019-05-29T23:02:45.785Z,54.54
2019-05-29T23:05:19.622Z,54.72
2019-05-29T23:07:54.139Z,54.98
2019-05-29T23:10:28.223Z,55.12
2019-05-29T23:13:05.463Z,55.41
2019-05-29T23:15:35.960Z,55.52
2019-05-29T23:18:09.791Z,55.37
2019-05-29T23:20:43.708Z,55.30
2019-05-29T23:23:17.761Z,55.47
2019-05-29T23:25:52.533Z,55.45
2019-05-29T23:28:26.478Z,55.48
2019-05-29T23:31:01.021Z,55.56
2019-05-29T23:33:34.905Z,55.54
2019-05-29T23:36:08.856Z,55.42
2019-05-29T23:38:42.005Z,55.52
2019-05-29T23:41:15.917Z,55.64
2019-05-29T23:43:49.068Z,55.66
2019-05-29T23:46:22.998Z,55.77
2019-05-29T23:48:57.523Z,55.96
2019-05-29T23:51:31.434Z,55.88
2019-05-29T23:54:05.482Z,55.87
2019-05-29T23:56:38.554Z,55.86
2019-05-29T23:59:12.410Z,55.94
